Time;durP1;ratioP1;P1;durP2;ratioP2;P2;SDS_P1;SDS_P2;PMS_P1;PMS_P2;Temp;Humidity;BMP_temperature;BMP_pressure;BME280_temperature;BME280_humidity;BME280_pressure;Samples;Min_cycle;Max_cycle;Signal;HPM_P1;HPM_P2
2023/10/10 00:00:37;;;;;;;15.52;7.80;;;;;;;13.59;100.00;98985.00;4469174;32;20714;-77
2023/10/10 00:03:06;;;;;;;13.95;7.03;;;;;;;13.47;100.00;98981.78;4468957;32;20430;-77
2023/10/10 00:05:36;;;;;;;13.23;6.28;;;;;;;13.36;100.00;98989.06;4468858;32;20116;-76
2023/10/10 00:08:05;;;;;;;14.68;7.22;;;;;;;13.25;100.00;98987.44;4469181;32;20138;-76
2023/10/10 00:10:34;;;;;;;12.23;6.87;;;;;;;13.12;100.00;98987.78;4469145;32;20465;-76
2023/10/10 00:13:04;;;;;;;18.33;7.20;;;;;;;13.10;100.00;98979.22;4468827;32;20501;-76
2023/10/10 00:15:34;;;;;;;17.83;7.53;;;;;;;13.13;100.00;98976.31;4471620;32;20124;-76
2023/10/10 00:18:07;;;;;;;13.07;6.62;;;;;;;13.17;100.00;98972.41;4484688;31;20084;-76
2023/10/10 00:20:46;;;;;;;11.73;7.30;;;;;;;13.21;100.00;98976.38;4484632;31;20092;-76
2023/10/10 00:23:16;;;;;;;10.00;6.53;;;;;;;13.15;100.00;98971.72;4484440;31;20080;-76
2023/10/10 00:25:47;;;;;;;12.35;6.87;;;;;;;13.19;100.00;98970.44;4484793;31;20141;-76
2023/10/10 00:28:18;;;;;;;11.90;6.87;;;;;;;13.16;100.00;98976.00;4484474;31;20084;-77
2023/10/10 00:30:45;;;;;;;13.18;6.93;;;;;;;13.17;100.00;98984.72;4484432;31;20107;-77
2023/10/10 00:33:16;;;;;;;12.70;6.70;;;;;;;13.23;100.00;98982.34;4484265;31;20148;-76
2023/10/10 00:35:44;;;;;;;15.38;8.00;;;;;;;13.26;100.00;98982.03;4484268;31;20092;-76
2023/10/10 00:38:18;;;;;;;15.35;7.20;;;;;;;13.16;100.00;98983.91;4484166;31;20100;-76
2023/10/10 00:40:47;;;;;;;14.55;7.37;;;;;;;13.11;100.00;98984.34;4484038;31;20088;-76
2023/10/10 00:43:22;;;;;;;13.62;7.20;;;;;;;13.17;100.00;98969.78;4484138;31;20122;-76
2023/10/10 00:45:57;;;;;;;16.58;8.25;;;;;;;13.11;100.00;98972.97;4484272;31;20085;-76
2023/10/10 00:48:29;;;;;;;15.23;8.00;;;;;;;13.20;100.00;98979.16;4482833;32;20415;-76
2023/10/10 00:51:05;;;;;;;14.10;7.47;;;;;;;13.27;100.00;98983.66;4482977;32;20092;-76
2023/10/10 00:53:33;;;;;;;14.90;7.45;;;;;;;13.36;100.00;98983.81;4478602;32;20118;-76
2023/10/10 00:56:06;;;;;;;13.52;6.90;;;;;;;13.39;100.00;98980.88;4468417;32;20089;-76
2023/10/10 00:58:42;;;;;;;13.02;7.22;;;;;;;13.44;100.00;98981.22;4468277;32;20599;-76
2023/10/10 01:01:10;;;;;;;17.77;7.32;;;;;;;13.56;100.00;98990.56;4468506;32;20133;-76
2023/10/10 01:03:41;;;;;;;16.25;7.47;;;;;;;13.52;100.00;98997.13;4468236;32;20097;-76
2023/10/10 01:06:14;;;;;;;12.27;6.30;;;;;;;13.52;100.00;98989.22;4468310;32;20108;-76
2023/10/10 01:11:48;;;;;;;13.30;7.07;;;;;;;13.72;100.00;98989.06;4435006;32;20143;-76
2023/10/10 01:14:18;;;;;;;15.45;7.05;;;;;;;13.80;100.00;98987.31;4434776;32;20120;-76
2023/10/10 01:16:47;;;;;;;14.40;7.55;;;;;;;13.76;100.00;98991.25;4434551;32;20136;-76
2023/10/10 01:19:18;;;;;;;13.50;6.32;;;;;;;13.80;100.00;98992.56;4434400;32;20482;-76
2023/10/10 01:21:50;;;;;;;9.80;5.97;;;;;;;13.83;100.00;98994.09;4434382;32;20205;-76
2023/10/10 01:24:21;;;;;;;12.43;6.30;;;;;;;13.64;100.00;98997.69;4434626;32;20624;-76
2023/10/10 01:26:52;;;;;;;11.52;5.55;;;;;;;13.65;100.00;98997.53;4434563;32;20522;-76
2023/10/10 01:31:51;;;;;;;10.73;6.10;;;;;;;13.45;100.00;99004.78;4434409;32;20105;-76
2023/10/10 01:34:44;;;;;;;14.65;6.30;;;;;;;13.36;100.00;99005.66;4434437;32;20126;-76
2023/10/10 01:37:20;;;;;;;13.65;6.32;;;;;;;13.27;100.00;99004.72;4434272;32;20129;-76
2023/10/10 01:40:17;;;;;;;14.87;7.90;;;;;;;12.86;100.00;99003.44;4434388;32;20101;-76
2023/10/10 01:42:51;;;;;;;19.55;8.20;;;;;;;12.78;100.00;99009.44;4434365;32;20089;-76
2023/10/10 01:45:21;;;;;;;16.67;7.22;;;;;;;12.53;100.00;99013.53;4434398;32;20081;-76
2023/10/10 01:48:02;;;;;;;13.98;7.40;;;;;;;12.03;100.00;99019.88;4435672;32;20113;-76
2023/10/10 01:50:33;;;;;;;11.45;7.00;;;;;;;11.79;100.00;99015.84;4483367;31;20127;-76
2023/10/10 01:53:03;;;;;;;15.52;7.35;;;;;;;11.77;100.00;99007.28;4482031;32;20089;-76
2023/10/10 01:55:31;;;;;;;14.30;6.62;;;;;;;11.65;100.00;99013.66;4469993;32;20076;-76
2023/10/10 01:58:01;;;;;;;19.40;7.28;;;;;;;11.67;100.00;99006.44;4469953;32;20478;-76
2023/10/10 02:00:34;;;;;;;14.13;6.60;;;;;;;11.67;100.00;99009.94;4470006;32;20085;-76
2023/10/10 02:03:03;;;;;;;9.95;6.40;;;;;;;11.56;100.00;99017.91;4469709;32;20147;-76
2023/10/10 02:08:00;;;;;;;16.20;6.95;;;;;;;11.52;100.00;99012.13;4469616;32;20450;-76
2023/10/10 02:10:29;;;;;;;13.62;6.50;;;;;;;11.55;100.00;99011.00;4469909;32;20092;-76
2023/10/10 02:12:59;;;;;;;10.90;6.05;;;;;;;11.46;100.00;99017.06;4469859;32;20092;-76
2023/10/10 02:15:32;;;;;;;12.20;6.80;;;;;;;11.48;100.00;99018.59;4472271;32;20156;-76
2023/10/10 02:18:23;;;;;;;10.68;6.22;;;;;;;11.52;100.00;99021.78;4485520;31;20558;-76
2023/10/10 02:20:51;;;;;;;13.07;6.90;;;;;;;11.55;100.00;99026.75;4485486;31;20570;-76
2023/10/10 02:23:31;;;;;;;15.55;7.00;;;;;;;11.63;100.00;99020.84;4485348;31;20092;-76
2023/10/10 02:28:49;;;;;;;14.68;6.93;;;;;;;11.67;100.00;99024.81;4485314;31;20540;-76
2023/10/10 02:31:18;;;;;;;12.07;6.25;;;;;;;11.73;100.00;99019.03;4485303;31;20088;-76
2023/10/10 02:33:48;;;;;;;13.23;7.53;;;;;;;11.71;100.00;99018.34;4485252;31;20123;-76
2023/10/10 02:36:30;;;;;;;17.58;6.85;;;;;;;11.80;100.00;99019.31;4485202;31;20096;-76
2023/10/10 02:39:18;;;;;;;13.10;7.35;;;;;;;11.87;100.00;99017.81;4485316;31;20475;-76
2023/10/10 02:41:51;;;;;;;9.85;6.07;;;;;;;11.99;100.00;99021.09;4485289;31;20148;-76
2023/10/10 02:47:02;;;;;;;12.95;6.10;;;;;;;12.11;100.00;99019.97;4485105;31;20072;-76
2023/10/10 02:52:05;;;;;;;14.45;6.87;;;;;;;11.97;100.00;99031.75;4485310;31;20167;-76
2023/10/10 02:54:43;;;;;;;12.02;7.22;;;;;;;12.11;100.00;99025.25;4473288;31;20097;-76
2023/10/10 03:00:15;;;;;;;34.85;6.85;;;;;;;12.21;100.00;99026.06;4469398;32;20093;-76
2023/10/10 03:02:49;;;;;;;24.12;6.18;;;;;;;12.18;100.00;99015.00;4469343;32;20128;-76
2023/10/10 03:05:20;;;;;;;22.52;6.07;;;;;;;12.20;100.00;99023.56;4469243;32;20505;-76
2023/10/10 03:07:53;;;;;;;18.50;6.47;;;;;;;12.07;100.00;99027.31;4469371;32;20089;-76
2023/10/10 03:10:39;;;;;;;26.17;6.60;;;;;;;12.18;100.00;99025.53;4469309;32;20096;-76
2023/10/10 03:13:21;;;;;;;12.75;6.10;;;;;;;12.04;100.00;99013.66;4469738;32;20149;-76
2023/10/10 03:15:54;;;;;;;13.48;6.10;;;;;;;12.17;100.00;99015.97;4474435;32;20092;-76
2023/10/10 03:18:35;;;;;;;16.98;6.72;;;;;;;12.34;100.00;99020.50;4485178;32;20080;-76
2023/10/10 03:21:18;;;;;;;13.90;6.78;;;;;;;12.38;100.00;99021.91;4484996;31;20114;-76
2023/10/10 03:23:55;;;;;;;18.33;6.68;;;;;;;12.02;100.00;99026.94;4484919;31;20107;-76
2023/10/10 03:26:52;;;;;;;14.82;6.75;;;;;;;12.04;100.00;99029.41;4485254;31;20092;-76
2023/10/10 03:29:27;;;;;;;17.98;6.72;;;;;;;11.86;100.00;99031.88;4485014;31;20133;-76
2023/10/10 03:32:19;;;;;;;13.88;6.60;;;;;;;11.67;100.00;99037.94;4484996;31;20115;-76
2023/10/10 03:34:44;;;;;;;13.90;7.43;;;;;;;11.41;100.00;99041.09;4484758;31;20156;-75
2023/10/10 03:37:29;;;;;;;20.37;7.60;;;;;;;11.13;100.00;99035.66;4484988;31;20107;-75
2023/10/10 03:40:21;;;;;;;16.12;7.32;;;;;;;10.94;100.00;99040.84;4485171;31;20096;-76
2023/10/10 05:25:50;;;;;;;12.93;5.15;;;;;;;10.38;100.00;99113.62;4480160;31;20467;-80
2023/10/10 05:28:19;;;;;;;10.93;4.55;;;;;;;10.41;100.00;99113.38;4483242;32;20385;-79
2023/10/10 05:30:47;;;;;;;12.85;5.35;;;;;;;10.19;100.00;99118.69;4483420;31;20131;-80
2023/10/10 05:33:19;;;;;;;12.98;5.72;;;;;;;10.35;100.00;99124.37;4483867;32;20096;-77
2023/10/10 05:35:47;;;;;;;10.40;4.72;;;;;;;10.38;100.00;99124.09;4479428;31;20111;-76
2023/10/10 05:38:19;;;;;;;11.00;5.12;;;;;;;10.40;100.00;99126.59;4479187;31;20108;-77
2023/10/10 05:40:47;;;;;;;16.48;5.95;;;;;;;10.51;100.00;99133.56;4480435;32;20131;-76
2023/10/10 05:43:15;;;;;;;14.05;5.15;;;;;;;10.36;100.00;99128.66;4483462;31;20180;-77
2023/10/10 05:45:43;;;;;;;13.75;4.90;;;;;;;10.32;100.00;99135.06;4482373;31;20138;-78
2023/10/10 05:48:12;;;;;;;17.70;5.12;;;;;;;10.48;100.00;99138.09;4480251;32;20104;-77
2023/10/10 05:50:40;;;;;;;14.07;5.32;;;;;;;10.60;100.00;99140.69;4485594;31;20093;-77
2023/10/10 05:53:10;;;;;;;13.15;5.10;;;;;;;10.67;100.00;99148.84;4480388;31;20128;-77
2023/10/10 05:55:40;;;;;;;14.73;5.62;;;;;;;10.61;100.00;99150.19;4476473;32;20153;-77
2023/10/10 05:58:08;;;;;;;16.27;6.05;;;;;;;10.66;100.00;99150.66;4483914;31;20147;-76
2023/10/10 06:00:41;;;;;;;12.93;5.22;;;;;;;10.64;100.00;99160.41;4484646;31;20088;-77
2023/10/10 06:03:10;;;;;;;17.42;5.47;;;;;;;10.71;100.00;99160.75;4477650;31;20509;-78
2023/10/10 06:05:44;;;;;;;14.93;4.70;;;;;;;10.66;100.00;99158.50;4484496;31;20114;-80
2023/10/10 06:08:13;;;;;;;14.30;4.75;;;;;;;10.71;100.00;99156.31;4481084;32;21462;-79
2023/10/10 06:10:41;;;;;;;13.32;5.75;;;;;;;10.55;100.00;99161.19;4482456;31;20153;-78
2023/10/10 06:13:11;;;;;;;17.45;5.45;;;;;;;10.54;100.00;99162.97;4482907;31;20109;-78
2023/10/10 06:15:39;;;;;;;14.35;5.62;;;;;;;10.50;100.00;99164.19;4483330;31;20513;-78
2023/10/10 06:18:11;;;;;;;16.15;6.20;;;;;;;10.49;100.00;99162.50;4468531;31;20179;-79
2023/10/10 06:20:43;;;;;;;26.40;7.40;;;;;;;10.44;100.00;99169.94;4472461;32;20104;-79
2023/10/10 06:23:14;;;;;;;18.30;6.93;;;;;;;10.37;100.00;99181.84;4467604;32;20108;-80
2023/10/10 06:25:43;;;;;;;18.10;6.60;;;;;;;10.31;100.00;99183.19;4474256;31;20180;-78
2023/10/10 06:28:22;;;;;;;18.42;6.47;;;;;;;10.49;100.00;99183.47;4471837;32;20118;-78
2023/10/10 06:30:53;;;;;;;19.40;7.50;;;;;;;10.56;100.00;99183.81;4469585;32;20092;-79
2023/10/10 06:33:28;;;;;;;22.23;6.68;;;;;;;10.61;100.00;99182.47;4471812;32;20161;-79
2023/10/10 06:39:18;;;;;;;21.58;7.57;;;;;;;10.82;100.00;99192.13;4472321;32;20947;-80
2023/10/10 06:41:49;;;;;;;20.30;8.18;;;;;;;10.69;100.00;99184.47;4471393;32;20129;-79
2023/10/10 06:44:31;;;;;;;19.37;7.35;;;;;;;10.62;100.00;99189.34;4474780;32;20139;-78
2023/10/10 06:47:08;;;;;;;24.85;7.32;;;;;;;10.76;100.00;99190.81;4473854;32;20111;-79
2023/10/10 06:49:46;;;;;;;19.98;7.10;;;;;;;10.87;100.00;99191.72;4471617;31;20486;-77
2023/10/10 06:52:18;;;;;;;24.55;7.68;;;;;;;10.74;100.00;99203.25;4471811;31;20135;-78
2023/10/10 06:54:53;;;;;;;22.77;7.93;;;;;;;10.84;100.00;99203.31;4474415;32;20096;-77
2023/10/10 06:57:43;;;;;;;19.58;6.85;;;;;;;11.01;100.00;99220.25;4465868;32;20436;-80
2023/10/10 07:00:28;;;;;;;22.58;6.90;;;;;;;10.97;100.00;99218.84;4466088;32;20104;-79
2023/10/10 07:02:59;;;;;;;21.83;6.93;;;;;;;10.92;100.00;99215.78;4465880;32;20085;-79
2023/10/10 07:05:26;;;;;;;21.00;7.55;;;;;;;10.92;100.00;99215.78;4470637;32;20161;-79
2023/10/10 07:07:58;;;;;;;19.35;8.68;;;;;;;11.04;100.00;99221.75;4471034;32;20493;-78
2023/10/10 07:10:36;;;;;;;20.40;8.90;;;;;;;11.02;100.00;99214.03;4470158;32;20108;-77
2023/10/10 07:13:10;;;;;;;28.92;8.65;;;;;;;11.11;100.00;99215.91;4472674;32;21882;-79
2023/10/10 07:15:39;;;;;;;;;;;;;;;11.25;100.00;99213.88;4476952;32;20157;-82
2023/10/10 07:18:14;;;;;;;25.75;8.85;;;;;;;11.12;100.00;99221.97;4472053;31;19984;-80
2023/10/10 07:23:37;;;;;;;17.05;7.25;;;;;;;11.31;100.00;99229.09;4473780;32;20092;-78
2023/10/10 07:26:20;;;;;;;28.15;8.13;;;;;;;11.22;100.00;99237.75;4475132;32;20127;-77
2023/10/10 07:28:48;;;;;;;20.12;7.70;;;;;;;11.17;100.00;99235.50;4471867;32;20188;-78
2023/10/10 07:31:28;;;;;;;16.70;7.10;;;;;;;11.12;100.00;99235.06;4471400;32;20638;-78
2023/10/10 07:34:04;;;;;;;16.67;6.55;;;;;;;11.19;100.00;99244.09;4471283;32;20159;-78
2023/10/10 07:36:38;;;;;;;25.98;7.40;;;;;;;10.94;100.00;99238.25;4473794;31;20105;-77
2023/10/10 07:41:52;;;;;;;15.65;6.10;;;;;;;11.10;100.00;99235.19;4474011;32;20148;-77
2023/10/10 07:44:22;;;;;;;15.07;6.93;;;;;;;11.17;100.00;99236.34;4473098;32;20092;-78
2023/10/10 07:49:39;;;;;;;19.27;7.35;;;;;;;11.54;100.00;99238.47;4475781;31;20100;-78
2023/10/10 07:52:16;;;;;;;11.68;6.10;;;;;;;11.51;100.00;99235.28;4469679;32;20167;-77
2023/10/10 07:54:46;;;;;;;14.40;6.28;;;;;;;11.56;100.00;99232.25;4473136;32;20445;-78
2023/10/10 07:57:17;;;;;;;12.43;6.22;;;;;;;11.82;100.00;99230.00;4474319;32;20442;-77
2023/10/10 07:59:46;;;;;;;15.60;6.72;;;;;;;11.84;100.00;99235.94;4472252;32;20148;-80
2023/10/10 08:02:34;;;;;;;20.80;6.43;;;;;;;11.58;100.00;99239.00;4471958;32;20155;-79
2023/10/10 08:05:10;;;;;;;29.85;5.93;;;;;;;11.88;100.00;99225.06;4471499;31;20217;-78
2023/10/10 08:07:38;;;;;;;16.62;6.68;;;;;;;11.97;100.00;99225.22;4468521;32;20161;-78
2023/10/10 08:12:52;;;;;;;14.93;6.03;;;;;;;12.18;100.00;99225.94;4470785;32;20104;-78
2023/10/10 08:15:19;;;;;;;30.10;7.32;;;;;;;12.20;100.00;99216.16;4471971;31;20112;-76
2023/10/10 08:17:52;;;;;;;23.73;6.90;;;;;;;12.53;100.00;99227.22;4469836;31;20154;-77
2023/10/10 08:21:06;;;;;;;16.87;6.25;;;;;;;12.36;100.00;99227.91;4473209;32;20092;-80
2023/10/10 08:23:24;;;;;;;17.77;6.97;;;;;;;12.55;100.00;99229.72;4470526;32;20119;-77
2023/10/10 08:25:52;;;;;;;13.48;6.40;;;;;;;12.62;100.00;99240.53;4467438;32;20134;-76
2023/10/10 08:28:22;;;;;;;18.92;6.87;;;;;;;12.79;100.00;99245.06;4469343;31;20123;-77
2023/10/10 08:30:50;;;;;;;16.75;6.20;;;;;;;12.51;100.00;99255.44;4468548;32;20097;-78
2023/10/10 08:33:19;;;;;;;18.48;6.22;;;;;;;12.30;100.00;99265.25;4467957;32;20147;-81
2023/10/10 08:35:47;;;;;;;16.27;6.57;;;;;;;12.30;100.00;99268.69;4468852;31;20147;-80
2023/10/10 08:38:20;;;;;;;19.60;7.12;;;;;;;12.30;100.00;99266.06;4471261;31;20137;-80
2023/10/10 08:41:01;;;;;;;14.38;7.03;;;;;;;12.51;100.00;99263.34;4473980;32;20100;-79
2023/10/10 08:43:31;;;;;;;15.88;7.28;;;;;;;12.75;100.00;99256.84;4474279;32;20088;-79
2023/10/10 08:46:04;;;;;;;15.23;7.22;;;;;;;13.00;100.00;99271.19;4470219;32;20104;-77
2023/10/10 08:48:52;;;;;;;13.62;6.80;;;;;;;12.99;100.00;99276.59;4473388;32;20104;-80
2023/10/10 08:51:19;;;;;;;16.30;7.18;;;;;;;13.19;100.00;99278.25;4470316;32;20134;-77
2023/10/10 08:53:46;;;;;;;14.38;6.35;;;;;;;13.23;100.00;99282.25;4472244;32;20100;-80
2023/10/10 08:56:15;;;;;;;12.68;5.97;;;;;;;13.30;100.00;99278.06;4470203;32;20146;-78
2023/10/10 08:58:42;;;;;;;16.20;6.93;;;;;;;13.27;100.00;99274.91;4476909;32;20443;-83
2023/10/10 09:01:10;;;;;;;16.08;6.93;;;;;;;13.36;100.00;99279.34;4471249;31;20104;-78
2023/10/10 09:03:44;;;;;;;11.57;7.03;;;;;;;13.23;100.00;99274.38;4470120;32;20100;-78
2023/10/10 09:06:21;;;;;;;19.40;7.22;;;;;;;13.32;100.00;99283.19;4474301;32;20120;-79
2023/10/10 09:08:52;;;;;;;13.75;6.45;;;;;;;13.18;100.00;99276.56;4468223;32;20521;-76
2023/10/10 09:11:20;;;;;;;14.65;6.78;;;;;;;13.28;100.00;99282.66;4473804;32;20713;-80
2023/10/10 09:13:52;;;;;;;17.67;7.12;;;;;;;13.14;100.00;99296.25;4472988;32;20124;-78
2023/10/10 09:16:40;;;;;;;15.32;6.97;;;;;;;12.94;100.00;99300.69;4474252;32;20700;-76
2023/10/10 09:19:08;;;;;;;14.25;6.80;;;;;;;12.69;100.00;99296.84;4472706;32;20767;-77
2023/10/10 09:21:56;;;;;;;14.75;7.80;;;;;;;12.91;100.00;99296.56;4472218;32;20154;-76
2023/10/10 09:24:27;;;;;;;19.67;8.32;;;;;;;12.81;100.00;99298.34;4472289;32;20145;-75
2023/10/10 09:26:59;;;;;;;15.73;7.43;;;;;;;12.63;100.00;99297.34;4477227;32;20112;-75
2023/10/10 09:29:46;;;;;;;11.45;6.75;;;;;;;12.57;100.00;99289.06;4472731;32;20113;-76
2023/10/10 09:32:14;;;;;;;23.23;7.60;;;;;;;12.84;100.00;99290.19;4476108;32;20445;-78
2023/10/10 09:34:49;;;;;;;15.95;7.07;;;;;;;13.01;100.00;99291.28;4471542;32;20191;-75
2023/10/10 09:37:27;;;;;;;13.80;7.75;;;;;;;13.10;100.00;99289.63;4471926;32;20096;-76
2023/10/10 09:39:59;;;;;;;22.30;7.95;;;;;;;12.93;100.00;99294.63;4471310;32;20126;-77
2023/10/10 09:42:45;;;;;;;21.95;8.38;;;;;;;12.58;100.00;99297.78;4468427;32;20179;-79
2023/10/10 09:45:25;;;;;;;18.33;7.95;;;;;;;12.52;100.00;99304.44;4470080;32;20160;-77
2023/10/10 09:48:05;;;;;;;19.10;7.47;;;;;;;12.29;100.00;99301.19;4474151;32;20461;-74
2023/10/10 09:50:45;;;;;;;22.55;8.40;;;;;;;12.35;100.00;99291.94;4473696;32;20615;-77
2023/10/10 09:53:19;;;;;;;17.62;8.23;;;;;;;12.74;100.00;99290.19;4475670;31;20113;-78
2023/10/10 09:55:53;;;;;;;19.15;7.87;;;;;;;12.99;100.00;99292.37;4474993;32;20115;-75
2023/10/10 09:58:25;;;;;;;21.67;8.48;;;;;;;12.94;100.00;99301.53;4472969;32;20092;-79
2023/10/10 10:00:53;;;;;;;18.65;8.63;;;;;;;13.02;100.00;99300.00;4468337;32;20105;-78
2023/10/10 10:03:42;;;;;;;17.75;8.38;;;;;;;13.10;100.00;99285.19;4478955;32;20088;-79
2023/10/10 10:09:17;;;;;;;17.12;7.43;;;;;;;13.75;100.00;99287.13;4478620;32;20137;-78
2023/10/10 10:11:52;;;;;;;16.48;8.05;;;;;;;13.90;100.00;99290.13;4481662;31;20706;-81
2023/10/10 10:14:47;;;;;;;15.60;7.90;;;;;;;14.10;100.00;99297.94;4476783;32;20589;-78
2023/10/10 10:17:30;;;;;;;16.00;7.18;;;;;;;13.85;100.00;99300.25;4479237;32;20127;-79
2023/10/10 10:20:20;;;;;;;23.65;9.50;;;;;;;13.51;100.00;99306.03;4481374;32;20138;-76
2023/10/10 10:23:00;;;;;;;16.85;8.02;;;;;;;13.35;100.00;99309.25;4483604;31;20084;-79
2023/10/10 10:25:32;;;;;;;17.90;8.13;;;;;;;13.45;100.00;99309.25;4483781;31;20096;-81
2023/10/10 10:28:11;;;;;;;18.40;8.18;;;;;;;13.64;100.00;99305.72;4482396;31;20096;-80
2023/10/10 10:30:47;;;;;;;16.90;7.72;;;;;;;13.88;100.00;99304.41;4483426;31;20099;-76
2023/10/10 10:33:18;;;;;;;18.67;8.85;;;;;;;14.18;100.00;99303.28;4483659;31;20093;-77
2023/10/10 10:35:48;;;;;;;20.02;8.68;;;;;;;14.28;100.00;99304.06;4482674;31;20100;-76
2023/10/10 10:38:23;;;;;;;23.02;9.13;;;;;;;14.27;100.00;99305.03;4481405;32;20533;-75
2023/10/10 10:41:04;;;;;;;19.62;8.20;;;;;;;14.32;100.00;99307.22;4477094;32;20092;-73
2023/10/10 10:43:38;;;;;;;15.23;8.25;;;;;;;14.76;100.00;99303.91;4478625;32;20130;-75
2023/10/10 10:46:14;;;;;;;25.10;8.95;;;;;;;15.36;100.00;99306.69;4480107;32;20122;-75
2023/10/10 10:48:54;;;;;;;19.55;8.65;;;;;;;15.34;98.97;99308.66;4477444;32;20482;-74
2023/10/10 10:51:22;;;;;;;17.12;7.93;;;;;;;15.10;99.37;99308.50;4475641;32;20144;-76
2023/10/10 10:54:02;;;;;;;20.75;8.18;;;;;;;14.64;99.59;99306.78;4477346;32;20096;-77
2023/10/10 10:59:31;;;;;;;18.90;8.75;;;;;;;14.18;100.00;99298.81;4476604;31;20192;-77
2023/10/10 11:01:58;;;;;;;19.10;8.80;;;;;;;14.11;100.00;99302.19;4477438;32;20173;-76
2023/10/10 11:07:08;;;;;;;16.30;8.57;;;;;;;13.77;100.00;99311.50;4479951;32;20100;-75
2023/10/10 11:09:42;;;;;;;22.40;9.18;;;;;;;13.86;100.00;99307.19;4475659;32;20100;-76
2023/10/10 11:12:10;;;;;;;20.45;9.25;;;;;;;13.53;100.00;99306.72;4476631;32;20137;-75
2023/10/10 11:14:44;;;;;;;16.55;8.98;;;;;;;13.60;100.00;99304.38;4474597;31;20132;-75
2023/10/10 11:17:17;;;;;;;18.23;8.40;;;;;;;13.74;100.00;99308.34;4474949;32;20156;-75
2023/10/10 11:19:46;;;;;;;20.23;8.95;;;;;;;13.67;100.00;99297.53;4475341;32;20122;-75
2023/10/10 11:22:38;;;;;;;24.92;9.32;;;;;;;13.82;100.00;99298.75;4473838;32;20101;-75
2023/10/10 11:25:06;;;;;;;19.65;9.35;;;;;;;13.62;100.00;99295.34;4473595;32;20108;-75
2023/10/10 11:27:43;;;;;;;18.65;8.63;;;;;;;13.68;100.00;99293.13;4473403;32;20497;-75
2023/10/10 11:30:12;;;;;;;20.00;8.43;;;;;;;13.83;100.00;99291.66;4479340;31;20122;-75
2023/10/10 11:32:47;;;;;;;18.62;8.70;;;;;;;13.82;100.00;99287.34;4476246;32;20164;-75
2023/10/10 11:35:22;;;;;;;17.52;8.45;;;;;;;13.99;100.00;99289.22;4476719;32;20116;-75
2023/10/10 11:37:59;;;;;;;19.42;9.98;;;;;;;14.30;100.00;99285.47;4471566;32;20465;-75
2023/10/10 11:43:03;;;;;;;20.48;10.77;;;;;;;14.98;100.00;99282.34;4476645;32;20104;-75
2023/10/10 11:45:40;;;;;;;23.40;11.50;;;;;;;15.16;100.00;99281.50;4477201;32;20088;-75
2023/10/10 11:48:13;;;;;;;26.55;11.55;;;;;;;15.53;100.00;99285.69;4478776;31;20088;-76
2023/10/10 11:50:51;;;;;;;22.65;10.40;;;;;;;15.87;100.00;99276.97;4473922;32;20096;-76
2023/10/10 11:53:24;;;;;;;25.45;10.10;;;;;;;15.78;100.00;99269.00;4481474;31;20201;-76
2023/10/10 11:55:54;;;;;;;19.50;9.13;;;;;;;15.69;100.00;99262.00;4481241;32;20107;-76
2023/10/10 11:58:35;;;;;;;20.30;8.85;;;;;;;15.80;100.00;99258.28;4473745;32;20454;-76
2023/10/10 12:01:05;;;;;;;20.80;9.88;;;;;;;15.47;100.00;99263.34;4473464;32;20517;-76
2023/10/10 12:06:14;;;;;;;20.67;9.35;;;;;;;15.62;100.00;99263.59;4481640;31;20096;-76
2023/10/10 12:08:47;;;;;;;15.35;9.23;;;;;;;15.83;100.00;99260.59;4476408;31;20139;-76
2023/10/10 12:11:21;;;;;;;22.08;9.90;;;;;;;15.93;100.00;99250.72;4477468;32;20134;-76
2023/10/10 12:13:51;;;;;;;22.58;10.52;;;;;;;15.93;100.00;99249.91;4480931;31;20087;-76
2023/10/10 12:16:23;;;;;;;21.62;10.23;;;;;;;15.82;99.82;99239.63;4472084;32;20543;-77
2023/10/10 12:18:52;;;;;;;22.75;10.25;;;;;;;15.98;100.00;99236.22;4475663;32;20097;-77
2023/10/10 12:21:21;;;;;;;19.85;9.52;;;;;;;16.36;100.00;99240.09;4475179;32;20112;-76
2023/10/10 12:23:57;;;;;;;20.00;8.93;;;;;;;16.57;99.01;99244.91;4480143;31;20092;-76
2023/10/10 12:26:29;;;;;;;20.60;9.75;;;;;;;16.75;97.22;99250.06;4481395;31;20104;-76
2023/10/10 12:28:58;;;;;;;25.73;9.75;;;;;;;16.94;96.58;99245.44;4477386;32;20088;-76
2023/10/10 12:31:25;;;;;;;19.08;8.73;;;;;;;16.96;94.90;99246.94;4478158;32;20163;-76
2023/10/10 12:33:55;;;;;;;20.70;8.85;;;;;;;17.07;94.33;99252.91;4467464;32;20159;-76
2023/10/10 12:36:28;;;;;;;19.65;9.57;;;;;;;17.16;96.59;99249.25;4480410;32;20104;-76
2023/10/10 12:38:59;;;;;;;19.23;9.40;;;;;;;17.37;94.03;99249.53;4481523;32;20540;-76
2023/10/10 12:41:27;;;;;;;23.65;9.13;;;;;;;16.78;96.40;99255.03;4478234;31;20112;-77
2023/10/10 12:43:55;;;;;;;19.02;9.95;;;;;;;16.85;98.50;99250.72;4472859;32;20136;-76
2023/10/10 12:46:23;;;;;;;17.35;10.18;;;;;;;17.05;97.33;99255.72;4478097;31;20164;-77
2023/10/10 12:48:51;;;;;;;18.90;9.73;;;;;;;17.41;99.31;99247.37;4473877;31;20439;-76
2023/10/10 12:51:23;;;;;;;17.35;9.25;;;;;;;17.77;97.75;99246.09;4479572;32;20093;-76
2023/10/10 12:54:04;;;;;;;20.58;9.50;;;;;;;17.81;93.50;99256.19;4482257;31;20100;-77
2023/10/10 12:56:38;;;;;;;21.73;10.40;;;;;;;17.64;95.68;99251.94;4475083;32;20093;-76
2023/10/10 12:59:07;;;;;;;17.50;9.68;;;;;;;17.55;97.23;99254.63;4478456;32;20093;-77
2023/10/10 13:01:59;;;;;;;20.73;9.70;;;;;;;17.65;97.02;99245.66;4480162;32;20139;-76
2023/10/10 13:04:31;;;;;;;19.90;8.65;;;;;;;17.93;97.13;99238.13;4482797;31;20529;-76
2023/10/10 13:07:05;;;;;;;19.48;9.25;;;;;;;17.96;97.95;99236.94;4482512;31;20094;-77
2023/10/10 13:09:33;;;;;;;16.20;8.10;;;;;;;18.20;97.88;99239.47;4477479;32;20111;-77
2023/10/10 13:12:03;;;;;;;19.02;9.95;;;;;;;18.64;97.03;99235.34;4483396;31;20092;-77
2023/10/10 13:14:34;;;;;;;21.92;8.75;;;;;;;18.25;95.59;99237.09;4482584;31;20161;-78
2023/10/10 13:19:52;;;;;;;17.75;8.38;;;;;;;18.54;95.42;99229.47;4482576;32;20108;-78
2023/10/10 13:22:23;;;;;;;19.07;9.57;;;;;;;18.71;92.68;99235.47;4479014;32;20093;-79
2023/10/10 13:24:51;;;;;;;20.52;8.93;;;;;;;18.86;92.27;99232.88;4482405;31;20176;-78
2023/10/10 13:27:20;;;;;;;19.55;9.23;;;;;;;18.86;92.90;99239.00;4482235;31;20115;-78
2023/10/10 13:29:48;;;;;;;26.05;8.82;;;;;;;18.48;95.35;99230.97;4476711;31;20091;-78
2023/10/10 13:32:16;;;;;;;21.60;9.32;;;;;;;18.76;95.05;99238.41;4467902;31;20097;-75
2023/10/10 13:34:45;;;;;;;20.25;9.70;;;;;;;18.82;93.98;99223.59;4480089;32;20096;-76
2023/10/10 13:37:13;;;;;;;26.65;9.55;;;;;;;18.73;92.28;99233.47;4481405;31;20396;-76
2023/10/10 13:39:43;;;;;;;23.75;9.00;;;;;;;18.82;94.75;99237.69;4481775;31;20472;-75
2023/10/10 13:42:16;;;;;;;18.20;9.18;;;;;;;19.03;93.74;99228.25;4482869;31;20093;-76
2023/10/10 13:44:44;;;;;;;18.37;9.05;;;;;;;19.14;91.88;99230.47;4478517;31;20108;-77
2023/10/10 13:47:11;;;;;;;21.62;9.85;;;;;;;19.22;92.62;99233.03;4479442;32;20105;-77
2023/10/10 13:50:13;;;;;;;17.30;8.65;;;;;;;19.14;91.00;99230.47;4482669;31;20108;-77
2023/10/10 13:52:26;;;;;;;17.02;9.55;;;;;;;19.25;94.31;99229.19;4483477;32;20110;-77
2023/10/10 13:54:55;;;;;;;15.82;8.82;;;;;;;19.30;93.25;99227.66;4481865;32;20088;-77
2023/10/10 13:57:22;;;;;;;22.98;9.40;;;;;;;19.47;92.96;99224.78;4482500;31;20112;-77
2023/10/10 13:59:51;;;;;;;18.67;9.38;;;;;;;19.59;92.59;99222.50;4480492;32;20092;-77
2023/10/10 14:02:20;;;;;;;19.52;9.20;;;;;;;19.66;91.09;99234.06;4479392;32;20453;-76
2023/10/10 14:04:50;;;;;;;18.90;9.80;;;;;;;19.61;91.27;99237.25;4482473;32;20141;-79
2023/10/10 14:07:18;;;;;;;15.98;8.02;;;;;;;19.36;90.51;99239.34;4482874;32;20160;-77
2023/10/10 14:09:49;;;;;;;15.02;9.43;;;;;;;19.62;91.37;99232.75;4478068;32;20469;-77
2023/10/10 14:12:20;;;;;;;18.67;9.48;;;;;;;19.74;91.21;99235.78;4482926;31;20579;-77
2023/10/10 14:14:48;;;;;;;21.65;9.98;;;;;;;19.64;90.87;99234.22;4483412;31;20100;-77
2023/10/10 14:17:16;;;;;;;21.40;9.50;;;;;;;19.34;91.89;99236.06;4469613;31;20104;-77
2023/10/10 14:19:44;;;;;;;22.52;9.60;;;;;;;19.49;92.93;99236.09;4482743;32;20110;-77